Time;durP1;ratioP1;P1;durP2;ratioP2;P2;SDS_P1;SDS_P2;PMS_P1;PMS_P2;Temp;Humidity;BMP_temperature;BMP_pressure;BME280_temperature;BME280_humidity;BME280_pressure;Samples;Min_cycle;Max_cycle;Signal;HPM_P1;HPM_P2
2023/03/08 00:00:45;;;;;;;2.00;1.40;;;1.30;99.90;;;;;;4859141;29;20484;-56
2023/03/08 00:03:14;;;;;;;1.90;1.00;;;1.20;99.90;;;;;;4843132;29;20471;-59
2023/03/08 00:05:42;;;;;;;3.13;1.17;;;1.10;99.90;;;;;;4843320;29;20517;-59
2023/03/08 00:08:10;;;;;;;2.30;0.90;;;1.10;99.90;;;;;;4843049;29;20486;-59
2023/03/08 00:10:38;;;;;;;2.40;1.30;;;1.10;99.90;;;;;;4843205;29;20473;-57
2023/03/08 00:13:10;;;;;;;4.37;1.40;;;1.10;99.90;;;;;;4850427;29;20476;-58
2023/03/08 00:15:40;;;;;;;3.77;1.57;;;1.10;99.90;;;;;;4858581;29;20474;-59
2023/03/08 00:18:08;;;;;;;2.10;1.23;;;1.10;99.90;;;;;;4861940;29;20519;-59
2023/03/08 00:20:36;;;;;;;3.47;1.50;;;1.00;99.90;;;;;;4853442;29;20488;-59
2023/03/08 00:23:04;;;;;;;1.40;1.30;;;1.00;99.90;;;;;;4845982;29;20476;-58
2023/03/08 00:25:33;;;;;;;4.67;1.77;;;1.00;99.90;;;;;;4853370;29;20471;-58
2023/03/08 00:28:01;;;;;;;3.90;1.73;;;1.00;99.90;;;;;;4861610;29;20483;-59
2023/03/08 00:30:30;;;;;;;4.07;1.90;;;1.10;99.90;;;;;;4861008;29;20492;-58
2023/03/08 00:32:59;;;;;;;3.17;1.80;;;1.30;99.90;;;;;;4842214;29;20476;-59
2023/03/08 00:35:27;;;;;;;2.70;1.80;;;1.20;99.90;;;;;;4842765;29;20475;-58
2023/03/08 00:37:55;;;;;;;3.57;2.10;;;1.20;99.90;;;;;;4842721;29;20476;-59
2023/03/08 00:40:23;;;;;;;4.03;2.40;;;1.10;99.90;;;;;;4842491;29;20493;-56
2023/03/08 00:42:52;;;;;;;3.90;2.33;;;1.20;99.90;;;;;;4857049;29;20472;-58
2023/03/08 00:45:20;;;;;;;3.97;2.63;;;1.20;99.90;;;;;;4846966;29;20474;-59
2023/03/08 00:47:48;;;;;;;3.73;2.10;;;1.20;99.90;;;;;;4842532;29;20985;-58
2023/03/08 00:50:17;;;;;;;3.00;2.30;;;1.10;99.90;;;;;;4842346;29;20478;-59
2023/03/08 00:52:45;;;;;;;3.77;2.33;;;1.20;99.90;;;;;;4843126;29;20464;-58
2023/03/08 00:55:14;;;;;;;3.40;2.13;;;1.10;99.90;;;;;;4851770;29;20861;-59
2023/03/08 00:57:42;;;;;;;3.77;2.23;;;1.20;99.90;;;;;;4860620;29;20460;-59
2023/03/08 01:00:12;;;;;;;3.67;2.43;;;1.40;99.90;;;;;;4860987;29;20508;-58
2023/03/08 01:02:40;;;;;;;3.63;2.60;;;1.20;99.90;;;;;;4855970;29;20508;-59
2023/03/08 01:05:09;;;;;;;6.27;3.20;;;1.20;99.90;;;;;;4842225;29;20492;-58
2023/03/08 01:07:39;;;;;;;4.23;3.17;;;1.30;99.90;;;;;;4842011;29;20475;-58
2023/03/08 01:10:08;;;;;;;4.50;2.90;;;1.20;99.90;;;;;;4842182;29;20470;-58
2023/03/08 01:12:38;;;;;;;4.53;3.00;;;1.10;99.90;;;;;;4855306;29;20508;-58
2023/03/08 01:15:07;;;;;;;5.47;3.10;;;1.00;99.90;;;;;;4844834;29;20498;-59
2023/03/08 01:17:35;;;;;;;5.00;3.20;;;1.00;99.90;;;;;;4860379;29;20473;-58
2023/03/08 01:20:04;;;;;;;4.80;3.23;;;1.00;99.90;;;;;;4856493;29;20497;-59
2023/03/08 01:22:33;;;;;;;5.53;3.30;;;1.10;99.90;;;;;;4844380;29;20487;-59
2023/03/08 01:25:03;;;;;;;4.00;3.00;;;1.00;99.90;;;;;;4851454;29;21062;-59
2023/03/08 01:27:31;;;;;;;4.70;2.80;;;1.00;99.90;;;;;;4860526;29;20479;-58
2023/03/08 01:29:59;;;;;;;5.33;3.27;;;1.00;99.90;;;;;;4859103;29;20536;-59
2023/03/08 01:32:28;;;;;;;3.93;2.43;;;1.10;99.90;;;;;;4844677;29;20573;-58
2023/03/08 01:35:02;;;;;;;3.67;2.60;;;1.00;99.90;;;;;;4840563;29;20478;-58
2023/03/08 01:37:30;;;;;;;4.67;2.23;;;0.90;99.90;;;;;;4845469;29;20470;-58
2023/03/08 01:39:58;;;;;;;2.33;1.97;;;0.90;99.90;;;;;;4844382;29;20503;-59
2023/03/08 01:42:28;;;;;;;2.37;2.03;;;0.90;99.90;;;;;;4858592;29;20457;-58
2023/03/08 01:44:58;;;;;;;4.67;2.20;;;0.90;99.90;;;;;;4856344;29;20501;-58
2023/03/08 01:47:31;;;;;;;2.60;1.80;;;0.90;99.90;;;;;;4862605;29;20490;-59
2023/03/08 01:50:20;;;;;;;3.00;1.80;;;1.00;99.90;;;;;;4859639;29;20810;-58
2023/03/08 01:52:51;;;;;;;2.40;1.87;;;0.90;99.90;;;;;;4849614;29;21050;-58
2023/03/08 01:55:20;;;;;;;3.23;1.80;;;0.90;99.90;;;;;;4854751;29;20475;-58
2023/03/08 01:57:53;;;;;;;1.90;1.70;;;1.00;99.90;;;;;;4862402;29;20475;-58
2023/03/08 02:00:23;;;;;;;4.63;2.00;;;1.00;99.90;;;;;;4862066;29;20525;-59
2023/03/08 02:02:56;;;;;;;3.47;1.97;;;1.00;99.90;;;;;;4845220;29;20469;-58
2023/03/08 02:05:25;;;;;;;2.30;2.10;;;1.00;99.90;;;;;;4844016;29;20490;-57
2023/03/08 02:07:58;;;;;;;3.03;1.80;;;1.00;99.90;;;;;;4844140;29;20564;-58
2023/03/08 02:10:31;;;;;;;2.57;2.33;;;1.10;99.90;;;;;;4844048;29;20488;-58
2023/03/08 02:13:02;;;;;;;3.50;2.60;;;1.00;99.90;;;;;;4857382;29;21032;-57
2023/03/08 02:15:30;;;;;;;4.33;2.90;;;1.00;99.90;;;;;;4855760;29;21217;-59
2023/03/08 02:17:59;;;;;;;2.80;2.50;;;1.00;99.90;;;;;;4846177;29;20474;-59
2023/03/08 02:20:30;;;;;;;4.03;3.10;;;1.00;99.90;;;;;;4843515;29;20583;-58
2023/03/08 02:23:10;;;;;;;5.80;2.97;;;1.00;99.90;;;;;;4851807;29;20563;-58
2023/03/08 02:25:38;;;;;;;3.60;2.70;;;1.00;99.90;;;;;;4847974;29;20485;-59
2023/03/08 02:28:09;;;;;;;4.97;2.93;;;1.00;99.90;;;;;;4843832;29;21004;-58
2023/03/08 02:30:38;;;;;;;4.83;2.90;;;1.00;99.90;;;;;;4843192;29;20480;-58
2023/03/08 02:33:06;;;;;;;3.10;2.80;;;1.10;99.90;;;;;;4837552;29;20533;-59
2023/03/08 02:35:37;;;;;;;3.87;3.40;;;1.00;99.90;;;;;;4844618;29;20469;-58
2023/03/08 02:38:05;;;;;;;6.33;3.30;;;1.00;99.90;;;;;;4844670;29;20461;-59
2023/03/08 02:40:34;;;;;;;5.20;3.10;;;1.00;99.90;;;;;;4843299;29;20884;-58
2023/03/08 02:43:02;;;;;;;4.13;3.20;;;1.10;99.90;;;;;;4852302;29;20974;-59
2023/03/08 02:45:32;;;;;;;4.00;3.00;;;1.10;99.90;;;;;;4847259;29;20533;-59
2023/03/08 02:48:02;;;;;;;4.97;3.63;;;1.00;99.90;;;;;;4842784;29;20476;-58
2023/03/08 02:50:31;;;;;;;4.43;3.20;;;1.00;99.90;;;;;;4843121;29;20477;-60
2023/03/08 02:52:59;;;;;;;4.17;3.67;;;1.10;99.90;;;;;;4851338;29;20999;-58
2023/03/08 02:55:27;;;;;;;5.53;3.47;;;1.00;99.90;;;;;;4852756;29;20827;-58
2023/03/08 02:57:57;;;;;;;6.77;3.53;;;1.00;99.90;;;;;;4843273;29;20477;-58
2023/03/08 03:00:25;;;;;;;4.27;3.37;;;1.00;99.90;;;;;;4842479;29;20506;-58
2023/03/08 03:02:53;;;;;;;5.00;3.33;;;1.00;99.90;;;;;;4844040;29;20477;-58
2023/03/08 03:05:21;;;;;;;3.80;3.00;;;0.90;99.90;;;;;;4843212;29;20474;-59
2023/03/08 03:07:51;;;;;;;4.50;3.27;;;0.90;99.90;;;;;;4842833;29;20517;-58
2023/03/08 03:10:21;;;;;;;4.40;3.07;;;0.90;99.90;;;;;;4843024;29;20938;-59
2023/03/08 03:12:49;;;;;;;3.63;3.00;;;0.90;99.90;;;;;;4858432;29;20475;-58
2023/03/08 03:15:21;;;;;;;4.23;3.40;;;0.90;99.90;;;;;;4856957;29;20507;-58
2023/03/08 03:17:53;;;;;;;4.27;3.73;;;0.90;99.90;;;;;;4861242;29;20502;-59
2023/03/08 03:20:21;;;;;;;3.50;3.20;;;0.90;99.90;;;;;;4862426;29;20503;-59
2023/03/08 03:22:49;;;;;;;6.53;3.00;;;0.90;99.90;;;;;;4862197;29;20483;-58
2023/03/08 03:25:21;;;;;;;3.33;2.97;;;1.00;99.90;;;;;;4852417;29;20489;-59
2023/03/08 03:27:49;;;;;;;3.20;2.87;;;1.10;99.90;;;;;;4842243;29;20509;-59
2023/03/08 03:30:19;;;;;;;3.87;3.23;;;1.00;99.90;;;;;;4841611;29;20482;-57
2023/03/08 03:32:48;;;;;;;6.63;3.30;;;1.00;99.90;;;;;;4842252;29;20477;-58
2023/03/08 03:35:21;;;;;;;3.97;3.27;;;0.90;99.90;;;;;;4842609;29;20486;-59
2023/03/08 03:37:49;;;;;;;3.90;2.97;;;0.80;99.90;;;;;;4843627;29;20500;-58
2023/03/08 03:40:17;;;;;;;5.50;3.33;;;1.00;99.90;;;;;;4842337;29;20492;-59
2023/03/08 03:42:49;;;;;;;6.17;3.47;;;1.10;99.90;;;;;;4856687;29;20530;-59
2023/03/08 03:45:18;;;;;;;4.23;3.03;;;1.00;99.90;;;;;;4855019;29;20476;-58
2023/03/08 03:47:48;;;;;;;4.10;3.00;;;1.00;99.90;;;;;;4861837;29;20988;-58
2023/03/08 03:50:16;;;;;;;3.27;2.80;;;1.00;99.90;;;;;;4860798;29;20844;-59
2023/03/08 03:52:51;;;;;;;5.87;2.90;;;1.00;99.90;;;;;;4860792;29;20527;-58
2023/03/08 03:55:19;;;;;;;5.17;3.10;;;1.10;99.90;;;;;;4860672;29;20559;-59
2023/03/08 03:57:49;;;;;;;4.57;3.20;;;1.20;99.90;;;;;;4842474;29;20847;-58
2023/03/08 04:00:18;;;;;;;5.50;2.90;;;1.20;99.90;;;;;;4841481;29;20497;-59
2023/03/08 04:02:56;;;;;;;5.60;3.20;;;1.20;99.90;;;;;;4841738;29;21005;-58
2023/03/08 04:05:25;;;;;;;5.33;4.17;;;1.10;99.90;;;;;;4842112;29;20479;-58
2023/03/08 04:07:54;;;;;;;3.10;2.70;;;1.10;99.90;;;;;;4841848;29;20892;-59
2023/03/08 04:10:26;;;;;;;3.47;2.97;;;1.10;99.90;;;;;;4841660;29;20556;-56
2023/03/08 04:12:54;;;;;;;7.37;3.63;;;1.10;99.90;;;;;;4856248;29;20523;-59
2023/03/08 04:15:23;;;;;;;3.13;2.83;;;1.10;99.90;;;;;;4855161;29;20988;-59
2023/03/08 04:17:52;;;;;;;4.40;3.13;;;1.10;99.90;;;;;;4860185;29;20533;-58
2023/03/08 04:20:24;;;;;;;4.53;3.00;;;1.20;99.90;;;;;;4860166;29;20837;-59
2023/03/08 04:22:57;;;;;;;4.23;3.30;;;1.20;99.90;;;;;;4860064;29;20483;-59
2023/03/08 04:25:36;;;;;;;5.70;3.17;;;1.10;99.90;;;;;;4846947;29;20550;-58
2023/03/08 04:28:06;;;;;;;3.70;3.20;;;1.10;99.90;;;;;;4841606;29;20534;-58
2023/03/08 04:30:34;;;;;;;3.17;2.73;;;1.10;99.90;;;;;;4842242;29;20506;-58
2023/03/08 04:33:04;;;;;;;5.47;3.00;;;1.10;99.90;;;;;;4833945;29;20989;-58
2023/03/08 04:35:42;;;;;;;5.63;2.90;;;1.10;99.90;;;;;;4841470;29;21073;-58
2023/03/08 04:38:11;;;;;;;6.13;3.57;;;1.20;99.90;;;;;;4841648;29;20474;-58
2023/03/08 04:43:21;;;;;;;4.43;3.10;;;1.20;99.90;;;;;;4851609;29;21004;-59
2023/03/08 04:45:50;;;;;;;4.20;2.90;;;1.10;99.90;;;;;;4842779;29;20997;-58
2023/03/08 04:48:19;;;;;;;4.33;3.20;;;1.20;99.90;;;;;;4841208;29;20474;-58
2023/03/08 04:50:54;;;;;;;3.77;2.90;;;1.10;99.90;;;;;;4841023;29;20487;-58
2023/03/08 04:53:24;;;;;;;3.27;2.97;;;1.10;99.90;;;;;;4859566;29;20836;-59
2023/03/08 04:55:53;;;;;;;6.00;3.10;;;1.20;99.90;;;;;;4844477;29;20505;-58
2023/03/08 04:58:22;;;;;;;5.13;3.20;;;1.10;99.90;;;;;;4824277;29;20480;-59
2023/03/08 05:00:50;;;;;;;3.57;3.27;;;1.10;99.90;;;;;;4822366;29;20526;-58
2023/03/08 05:03:19;;;;;;;4.70;3.70;;;1.10;99.90;;;;;;4822995;29;20481;-58
2023/03/08 05:05:48;;;;;;;3.67;3.37;;;1.10;99.90;;;;;;4822730;29;20482;-60
2023/03/08 05:08:19;;;;;;;4.57;3.33;;;1.10;99.90;;;;;;4822916;29;20473;-59
2023/03/08 05:10:48;;;;;;;5.27;4.00;;;1.20;99.90;;;;;;4823071;29;20508;-57
2023/03/08 05:13:17;;;;;;;5.63;3.77;;;1.10;99.90;;;;;;4863935;29;20496;-59
2023/03/08 05:15:46;;;;;;;5.27;3.70;;;1.10;99.90;;;;;;4857046;29;20502;-58
2023/03/08 05:18:14;;;;;;;8.50;3.67;;;1.20;99.90;;;;;;4859541;29;20482;-58
2023/03/08 05:20:42;;;;;;;4.63;4.10;;;1.20;99.90;;;;;;4859102;29;20487;-59
2023/03/08 05:23:11;;;;;;;4.00;3.60;;;1.10;99.90;;;;;;4854705;29;20984;-59
2023/03/08 05:25:43;;;;;;;4.40;3.90;;;1.10;99.90;;;;;;4850843;29;20932;-58
2023/03/08 05:28:14;;;;;;;4.27;3.13;;;1.20;99.90;;;;;;4840852;29;20871;-59
2023/03/08 05:30:44;;;;;;;5.23;4.03;;;1.10;99.90;;;;;;4840253;29;20481;-58
2023/03/08 05:33:12;;;;;;;6.87;4.10;;;1.10;99.90;;;;;;4840801;29;20521;-58
2023/03/08 05:35:41;;;;;;;8.13;4.47;;;1.20;99.90;;;;;;4840539;29;20489;-58
2023/03/08 05:38:09;;;;;;;5.10;4.37;;;1.20;99.90;;;;;;4840645;29;20484;-58
2023/03/08 05:40:38;;;;;;;7.23;6.00;;;1.10;99.90;;;;;;4840429;29;20477;-59
2023/03/08 05:43:08;;;;;;;6.43;4.23;;;1.20;99.90;;;;;;4849209;29;20531;-59
2023/03/08 05:45:36;;;;;;;6.67;4.50;;;1.20;99.90;;;;;;4855481;29;20476;-59
2023/03/08 05:48:06;;;;;;;4.30;3.90;;;1.10;99.90;;;;;;4859003;29;20473;-58
2023/03/08 05:50:37;;;;;;;4.73;4.27;;;1.00;99.90;;;;;;4858779;29;20507;-59
2023/03/08 05:53:06;;;;;;;6.67;4.60;;;1.00;99.90;;;;;;4852857;29;20958;-58
2023/03/08 05:55:34;;;;;;;7.13;4.43;;;1.00;99.90;;;;;;4851310;29;20550;-58
2023/03/08 05:58:02;;;;;;;5.43;4.50;;;1.10;99.90;;;;;;4840532;29;20537;-58
2023/03/08 06:00:32;;;;;;;6.60;4.63;;;1.10;99.90;;;;;;4840241;29;20485;-58
2023/03/08 06:03:02;;;;;;;5.77;4.60;;;1.10;99.90;;;;;;4840370;29;20494;-58
2023/03/08 06:05:32;;;;;;;6.73;5.03;;;1.10;99.90;;;;;;4840391;29;20477;-58
2023/03/08 06:08:00;;;;;;;8.80;4.90;;;1.10;99.90;;;;;;4841299;29;20861;-58
2023/03/08 06:10:28;;;;;;;5.93;4.60;;;1.10;99.90;;;;;;4838261;29;20472;-58
2023/03/08 06:12:57;;;;;;;11.83;5.83;;;1.30;99.90;;;;;;4831047;29;20879;-58
2023/03/08 06:15:25;;;;;;;9.27;6.57;;;1.70;99.90;;;;;;4835473;29;20531;-57
2023/03/08 06:17:55;;;;;;;11.07;7.00;;;1.60;99.90;;;;;;4834736;29;20518;-58
2023/03/08 06:20:25;;;;;;;10.37;6.40;;;1.40;99.90;;;;;;4835622;29;20477;-57
2023/03/08 06:22:55;;;;;;;9.87;6.40;;;1.50;99.90;;;;;;4839156;29;20865;-57
2023/03/08 06:25:24;;;;;;;9.10;7.50;;;1.50;99.90;;;;;;4853848;29;20589;-58
2023/03/08 06:27:52;;;;;;;11.43;7.20;;;1.50;99.90;;;;;;4838816;29;20989;-58
2023/03/08 06:30:27;;;;;;;13.10;8.53;;;2.00;99.90;;;;;;4837044;29;20543;-58
2023/03/08 06:32:57;;;;;;;11.97;7.50;;;1.90;99.90;;;;;;4838138;29;20497;-57
2023/03/08 06:35:25;;;;;;;8.80;7.60;;;1.70;99.90;;;;;;4837941;29;20507;-54
2023/03/08 06:37:58;;;;;;;10.10;7.63;;;1.50;99.90;;;;;;4837629;29;20521;-57
2023/03/08 06:40:26;;;;;;;9.13;7.50;;;1.40;99.90;;;;;;4837733;29;20469;-58
2023/03/08 06:42:54;;;;;;;10.27;6.93;;;1.40;99.90;;;;;;4839946;29;20529;-55
2023/03/08 06:45:22;;;;;;;11.37;6.87;;;1.40;99.90;;;;;;4839257;29;20481;-58
2023/03/08 06:47:50;;;;;;;8.57;6.73;;;1.40;99.90;;;;;;4853679;29;20478;-58
2023/03/08 06:50:20;;;;;;;8.33;6.60;;;1.40;99.90;;;;;;4838004;29;20481;-58
2023/03/08 06:52:50;;;;;;;10.50;6.63;;;1.40;99.90;;;;;;4836711;29;20477;-57
2023/03/08 06:55:25;;;;;;;8.50;6.10;;;1.40;99.90;;;;;;4835869;29;20481;-58
2023/03/08 06:57:54;;;;;;;8.33;6.10;;;1.40;99.90;;;;;;4838837;29;20483;-58
2023/03/08 07:00:23;;;;;;;10.83;5.63;;;1.30;99.90;;;;;;4840206;29;20483;-57
2023/03/08 07:02:52;;;;;;;8.00;5.63;;;1.40;99.90;;;;;;4839081;29;20513;-58
2023/03/08 07:05:22;;;;;;;7.43;6.10;;;1.40;99.90;;;;;;4839269;29;20481;-57
2023/03/08 07:07:50;;;;;;;9.83;5.83;;;1.30;99.90;;;;;;4837466;29;20560;-54
2023/03/08 07:10:20;;;;;;;8.83;6.40;;;1.40;99.90;;;;;;4837649;29;20481;-58
2023/03/08 07:12:50;;;;;;;7.83;6.20;;;1.40;99.90;;;;;;4840058;29;20474;-58
2023/03/08 07:15:21;;;;;;;7.93;6.50;;;1.40;99.90;;;;;;4838072;29;20516;-58
2023/03/08 07:17:50;;;;;;;8.27;5.97;;;1.50;99.90;;;;;;4838779;29;20829;-58
2023/03/08 07:20:22;;;;;;;7.87;6.20;;;1.50;99.90;;;;;;4838445;29;20830;-57
2023/03/08 07:22:50;;;;;;;9.87;6.50;;;1.50;99.90;;;;;;4839215;29;20498;-58
2023/03/08 07:25:19;;;;;;;8.70;6.57;;;1.60;99.90;;;;;;4838600;29;20485;-57
2023/03/08 07:27:48;;;;;;;12.97;7.70;;;1.60;99.90;;;;;;4838765;29;20575;-58
2023/03/08 07:30:17;;;;;;;8.73;6.97;;;1.60;99.90;;;;;;4839468;29;20564;-58
2023/03/08 07:32:45;;;;;;;8.33;7.27;;;1.60;99.90;;;;;;4838430;29;20552;-55
2023/03/08 07:35:15;;;;;;;9.10;7.33;;;1.60;99.90;;;;;;4838611;29;20509;-58
2023/03/08 07:37:46;;;;;;;11.60;7.93;;;1.60;99.90;;;;;;4837821;29;20482;-58
2023/03/08 07:40:16;;;;;;;12.90;8.80;;;1.60;99.90;;;;;;4838817;29;20900;-58
2023/03/08 07:42:45;;;;;;;11.27;8.77;;;1.60;99.90;;;;;;4838525;29;21767;-58
2023/03/08 07:45:34;;;;;;;13.03;8.73;;;1.70;99.90;;;;;;4837646;29;21029;-58
2023/03/08 07:48:02;;;;;;;11.97;9.07;;;1.80;99.90;;;;;;4838310;29;20815;-58
2023/03/08 07:50:30;;;;;;;13.83;9.93;;;1.70;99.90;;;;;;4838418;29;21602;-59
2023/03/08 07:53:00;;;;;;;13.93;9.70;;;1.70;99.90;;;;;;4837935;29;20510;-58
2023/03/08 07:55:28;;;;;;;15.03;9.53;;;1.70;99.90;;;;;;4836496;29;20489;-57
2023/03/08 07:57:56;;;;;;;12.23;9.63;;;1.70;99.90;;;;;;4837596;29;20476;-56
2023/03/08 08:00:25;;;;;;;11.13;9.13;;;1.80;99.90;;;;;;4837485;29;20839;-54
2023/03/08 08:02:53;;;;;;;13.73;9.17;;;1.70;99.90;;;;;;4838284;29;20504;-58
2023/03/08 08:05:22;;;;;;;12.97;9.73;;;1.80;99.90;;;;;;4838657;29;20537;-58
2023/03/08 08:07:50;;;;;;;14.60;10.33;;;2.00;99.90;;;;;;4837411;29;20481;-56
2023/03/08 08:10:19;;;;;;;14.33;10.70;;;2.00;99.90;;;;;;4838267;29;21029;-58
2023/03/08 08:12:48;;;;;;;13.10;10.00;;;2.10;99.90;;;;;;4837484;29;20567;-58
2023/03/08 08:15:16;;;;;;;14.37;10.53;;;2.20;99.90;;;;;;4837940;29;20497;-56
2023/03/08 08:17:44;;;;;;;18.40;11.30;;;2.30;99.90;;;;;;4837068;29;20625;-57
2023/03/08 08:20:13;;;;;;;15.23;10.73;;;2.40;99.90;;;;;;4837566;29;20479;-57
2023/03/08 08:22:41;;;;;;;17.43;11.83;;;2.50;99.90;;;;;;4838798;29;20489;-57
2023/03/08 08:25:10;;;;;;;17.17;11.90;;;2.40;99.90;;;;;;4837123;29;20478;-58
2023/03/08 08:27:39;;;;;;;17.83;13.00;;;2.50;99.90;;;;;;4837376;29;20560;-57
2023/03/08 08:30:09;;;;;;;17.00;12.00;;;2.50;99.90;;;;;;4836712;29;20482;-58
2023/03/08 08:32:37;;;;;;;17.57;13.03;;;2.60;99.90;;;;;;4836872;29;20485;-58
2023/03/08 08:35:06;;;;;;;19.53;12.10;;;2.60;99.90;;;;;;4837270;29;20904;-58
2023/03/08 08:37:34;;;;;;;17.60;12.20;;;2.60;99.90;;;;;;4837366;29;20559;-58
2023/03/08 08:40:06;;;;;;;15.70;11.77;;;2.60;99.90;;;;;;4837775;29;20483;-57
2023/03/08 08:42:34;;;;;;;18.13;12.87;;;2.60;99.90;;;;;;4836680;29;20473;-58
2023/03/08 08:45:04;;;;;;;15.90;11.73;;;2.60;99.90;;;;;;4836522;29;21710;-57
2023/03/08 08:47:32;;;;;;;18.47;13.07;;;2.70;99.90;;;;;;4836691;29;20481;-58
2023/03/08 08:50:01;;;;;;;20.23;13.30;;;2.70;99.90;;;;;;4837511;29;20512;-58
2023/03/08 08:52:29;;;;;;;17.97;12.87;;;2.80;99.90;;;;;;4837475;29;20858;-57
2023/03/08 08:54:57;;;;;;;16.90;11.43;;;2.80;99.90;;;;;;4836572;29;20479;-57
2023/03/08 08:57:25;;;;;;;18.13;12.93;;;2.70;99.90;;;;;;4837232;29;20482;-55
2023/03/08 08:59:53;;;;;;;21.17;13.07;;;2.80;99.90;;;;;;4837038;29;20542;-56
2023/03/08 09:02:23;;;;;;;19.93;12.90;;;2.60;99.90;;;;;;4837392;29;20848;-58
2023/03/08 09:04:51;;;;;;;17.63;13.10;;;2.60;99.90;;;;;;4838062;29;20492;-58
2023/03/08 09:07:19;;;;;;;19.30;13.23;;;2.70;99.90;;;;;;4838284;29;20529;-58
2023/03/08 09:09:48;;;;;;;22.93;14.77;;;2.80;99.90;;;;;;4837546;29;20476;-57
2023/03/08 09:12:16;;;;;;;19.90;14.00;;;2.70;99.90;;;;;;4838341;29;20480;-57
2023/03/08 09:14:44;;;;;;;24.67;15.30;;;2.80;99.90;;;;;;4838282;29;20848;-58
2023/03/08 09:17:12;;;;;;;25.37;16.20;;;2.80;99.90;;;;;;4838145;29;20476;-57
2023/03/08 09:19:41;;;;;;;23.83;15.57;;;2.70;99.90;;;;;;4837893;29;20475;-55
2023/03/08 09:22:10;;;;;;;26.17;15.43;;;2.80;99.90;;;;;;4838641;29;20486;-58
2023/03/08 09:24:38;;;;;;;24.87;16.07;;;2.80;99.90;;;;;;4837989;29;20493;-57
2023/03/08 09:27:07;;;;;;;25.60;15.40;;;2.90;99.90;;;;;;4837795;29;20491;-58
2023/03/08 09:29:36;;;;;;;19.67;13.00;;;2.90;99.90;;;;;;4836946;29;20490;-58
2023/03/08 09:32:05;;;;;;;25.83;16.23;;;3.30;99.90;;;;;;4837726;29;20574;-57
2023/03/08 09:34:34;;;;;;;25.03;15.60;;;3.40;99.90;;;;;;4839243;29;20489;-58
2023/03/08 09:37:04;;;;;;;23.90;15.33;;;3.20;99.90;;;;;;4838511;29;20479;-54
2023/03/08 09:39:32;;;;;;;19.50;12.90;;;3.20;99.90;;;;;;4837376;29;20510;-57
2023/03/08 09:42:03;;;;;;;22.47;14.13;;;3.30;99.90;;;;;;4838024;29;20480;-57
2023/03/08 09:44:59;;;;;;;20.57;13.37;;;3.30;99.90;;;;;;4838585;29;20500;-58
2023/03/08 09:47:38;;;;;;;18.87;12.40;;;3.30;99.90;;;;;;4837115;29;20477;-57
2023/03/08 09:50:31;;;;;;;18.60;11.83;;;3.30;99.90;;;;;;4837888;29;20474;-57
2023/03/08 09:53:10;;;;;;;22.13;13.57;;;3.20;99.90;;;;;;4837629;29;20484;-58
2023/03/08 09:55:45;;;;;;;22.80;12.23;;;3.20;99.90;;;;;;4837017;29;20543;-56
2023/03/08 09:58:20;;;;;;;20.37;12.77;;;3.30;99.90;;;;;;4839547;29;20475;-57
2023/03/08 10:00:49;;;;;;;20.83;13.40;;;3.30;99.90;;;;;;4843224;29;20541;-57
2023/03/08 10:03:31;;;;;;;17.03;12.27;;;3.40;99.90;;;;;;4842172;29;20484;-58
2023/03/08 10:06:10;;;;;;;21.07;12.90;;;3.40;99.90;;;;;;4842848;29;20491;-57
2023/03/08 10:08:49;;;;;;;19.70;13.27;;;3.40;99.90;;;;;;4843209;29;20492;-58
2023/03/08 10:11:24;;;;;;;21.47;13.93;;;3.60;99.90;;;;;;4841109;29;20472;-53
2023/03/08 10:13:56;;;;;;;20.67;14.43;;;3.70;99.90;;;;;;4841107;29;22022;-58
2023/03/08 10:16:26;;;;;;;23.83;14.93;;;3.70;99.90;;;;;;4842265;29;20487;-57
2023/03/08 10:18:59;;;;;;;22.77;14.33;;;3.60;99.90;;;;;;4841101;29;20481;-57
2023/03/08 10:21:29;;;;;;;21.33;15.03;;;3.70;99.90;;;;;;4842000;29;20471;-57
2023/03/08 10:24:04;;;;;;;21.30;14.43;;;3.90;99.90;;;;;;4841869;29;20487;-58
2023/03/08 10:26:33;;;;;;;24.03;15.63;;;4.10;99.90;;;;;;4840892;29;20836;-57
2023/03/08 10:29:01;;;;;;;21.43;14.07;;;4.20;99.90;;;;;;4840701;29;20868;-58
2023/03/08 10:31:32;;;;;;;23.30;15.93;;;4.30;99.90;;;;;;4839549;29;21008;-58
2023/03/08 10:34:07;;;;;;;21.87;15.53;;;4.30;99.90;;;;;;4840462;29;20490;-58
2023/03/08 10:36:35;;;;;;;23.23;15.40;;;4.40;99.90;;;;;;4840543;29;20494;-58
2023/03/08 10:39:08;;;;;;;20.47;13.90;;;4.40;99.90;;;;;;4840783;29;20535;-57
2023/03/08 10:41:42;;;;;;;21.63;13.30;;;4.70;99.90;;;;;;4840788;29;20889;-58
2023/03/08 10:44:15;;;;;;;22.77;13.70;;;4.80;99.90;;;;;;4840750;29;20230;-55
2023/03/08 10:46:48;;;;;;;19.03;13.40;;;4.70;99.90;;;;;;4840164;29;20231;-53
2023/03/08 10:49:18;;;;;;;20.63;12.07;;;4.70;99.90;;;;;;4840509;29;20471;-57
2023/03/08 10:51:54;;;;;;;18.73;13.03;;;4.70;99.90;;;;;;4841560;29;20479;-58
2023/03/08 10:54:24;;;;;;;17.20;11.93;;;4.90;99.90;;;;;;4841809;29;20474;-58
2023/03/08 10:56:55;;;;;;;17.40;11.47;;;4.90;99.90;;;;;;4840354;29;20499;-58
2023/03/08 10:59:31;;;;;;;18.30;12.33;;;4.90;99.90;;;;;;4841142;29;20245;-58
2023/03/08 11:02:02;;;;;;;17.10;11.80;;;5.00;99.90;;;;;;4839092;29;20475;-58
2023/03/08 11:04:31;;;;;;;17.37;11.80;;;5.20;99.90;;;;;;4840226;29;20553;-57
2023/03/08 11:07:10;;;;;;;13.90;10.70;;;5.30;99.90;;;;;;4840598;29;20495;-57
2023/03/08 11:09:39;;;;;;;18.27;10.73;;;5.30;99.90;;;;;;4839995;29;21063;-58
2023/03/08 11:12:22;;;;;;;13.73;10.37;;;5.70;99.90;;;;;;4840509;29;20499;-58
2023/03/08 11:14:51;;;;;;;13.57;9.70;;;5.80;99.90;;;;;;4840230;29;20523;-58
2023/03/08 11:17:27;;;;;;;14.93;9.77;;;6.20;99.90;;;;;;4840257;29;20321;-58
2023/03/08 11:20:08;;;;;;;11.90;9.17;;;6.40;99.90;;;;;;4840017;29;20321;-58
2023/03/08 11:22:52;;;;;;;11.63;8.87;;;6.50;99.90;;;;;;4840785;29;20330;-58
2023/03/08 11:25:38;;;;;;;11.20;8.47;;;6.60;99.90;;;;;;4840949;29;20235;-58
2023/03/08 11:28:54;;;;;;;14.20;9.03;;;6.80;99.90;;;;;;4840604;29;20266;-58
2023/03/08 11:31:29;;;;;;;11.30;8.67;;;7.00;99.90;;;;;;4823148;29;20231;-59
2023/03/08 11:34:20;;;;;;;10.60;8.13;;;7.40;99.90;;;;;;4840464;29;20227;-57
2023/03/08 11:36:55;;;;;;;12.57;7.97;;;7.30;99.90;;;;;;4839734;29;20240;-54
2023/03/08 11:39:28;;;;;;;12.23;8.30;;;7.20;99.90;;;;;;4840580;29;20235;-58
2023/03/08 11:42:05;;;;;;;12.17;8.70;;;7.00;99.90;;;;;;4840616;29;20239;-57
2023/03/08 11:44:44;;;;;;;12.13;8.70;;;7.10;99.90;;;;;;4840646;29;20270;-56
2023/03/08 11:47:43;;;;;;;9.33;7.53;;;7.30;99.90;;;;;;4840317;29;20239;-57
2023/03/08 11:50:18;;;;;;;10.50;7.83;;;7.40;99.90;;;;;;4840259;29;20231;-53
2023/03/08 11:52:55;;;;;;;10.30;8.00;;;7.50;99.90;;;;;;4840372;29;20238;-58
2023/03/08 11:55:36;;;;;;;11.43;8.13;;;7.30;99.90;;;;;;4839647;29;20238;-58
2023/03/08 11:58:13;;;;;;;12.23;7.33;;;7.20;99.90;;;;;;4840281;29;20658;-57
2023/03/08 12:00:43;;;;;;;9.80;7.80;;;7.20;99.90;;;;;;4839609;29;20235;-57
2023/03/08 12:03:15;;;;;;;11.43;7.80;;;7.00;99.90;;;;;;4839993;29;20235;-57
2023/03/08 12:05:49;;;;;;;8.50;6.63;;;7.00;99.90;;;;;;4840013;29;20625;-57
2023/03/08 12:08:21;;;;;;;9.30;7.20;;;6.90;99.90;;;;;;4840006;29;20254;-58
2023/03/08 12:10:55;;;;;;;9.27;6.37;;;6.80;99.90;;;;;;4839588;29;20232;-57
2023/03/08 12:13:32;;;;;;;8.03;6.23;;;6.70;99.90;;;;;;4840801;29;20334;-55
2023/03/08 12:16:07;;;;;;;10.40;6.97;;;6.60;99.90;;;;;;4840188;29;20584;-58
2023/03/08 12:18:40;;;;;;;10.70;6.50;;;6.50;99.90;;;;;;4839388;29;20645;-57
2023/03/08 12:21:20;;;;;;;11.13;6.90;;;6.50;99.90;;;;;;4839136;29;20239;-57
2023/03/08 12:23:57;;;;;;;8.67;6.20;;;6.50;99.90;;;;;;4841028;29;20235;-56
2023/03/08 12:26:29;;;;;;;7.77;5.93;;;6.50;99.90;;;;;;4838167;29;20239;-58
2023/03/08 12:29:02;;;;;;;10.40;5.90;;;6.50;99.90;;;;;;4839315;29;20584;-55
2023/03/08 12:31:33;;;;;;;6.80;5.30;;;6.50;99.90;;;;;;4838823;29;20318;-57
2023/03/08 12:34:12;;;;;;;8.33;6.33;;;6.30;99.90;;;;;;4839577;29;20235;-57
2023/03/08 12:36:42;;;;;;;10.23;6.57;;;6.50;99.90;;;;;;4840050;29;20227;-57
2023/03/08 12:39:26;;;;;;;8.43;6.23;;;6.60;99.90;;;;;;4839118;29;20228;-56
2023/03/08 12:42:00;;;;;;;8.47;5.80;;;6.70;99.90;;;;;;4839242;29;20318;-58
2023/03/08 12:44:31;;;;;;;7.43;5.67;;;6.70;99.90;;;;;;4839480;29;20649;-58
2023/03/08 12:47:02;;;;;;;8.40;5.67;;;6.70;99.90;;;;;;4838299;29;20230;-58
2023/03/08 12:49:34;;;;;;;7.40;5.57;;;6.70;99.90;;;;;;4839088;29;20630;-57
2023/03/08 12:52:05;;;;;;;5.63;4.57;;;6.70;99.90;;;;;;4839476;29;20331;-57
2023/03/08 12:54:35;;;;;;;7.80;5.27;;;6.70;99.90;;;;;;4837259;29;20223;-55
2023/03/08 12:57:14;;;;;;;5.47;4.90;;;6.70;99.90;;;;;;4838469;29;20633;-56
2023/03/08 12:59:45;;;;;;;6.23;4.87;;;6.80;99.90;;;;;;4837670;29;20235;-56
2023/03/08 13:02:27;;;;;;;7.40;4.87;;;6.90;99.90;;;;;;4837340;29;20237;-57
2023/03/08 13:05:17;;;;;;;6.10;4.80;;;7.00;99.90;;;;;;4837756;29;20572;-57
2023/03/08 13:07:54;;;;;;;6.27;4.90;;;7.10;99.90;;;;;;4836831;29;20231;-57
2023/03/08 13:10:26;;;;;;;5.17;4.67;;;7.30;99.90;;;;;;4838477;29;20713;-57
2023/03/08 13:13:15;;;;;;;5.90;5.20;;;7.30;99.90;;;;;;4839162;29;20719;-58